sensor_id;sensor_type;location;lat;lon;timestamp;P1;durP1;ratioP1;P2;durP2;ratioP2
64789;SDS011;51223;51.816;5.862;2023-08-08T00:01:32;1.13;;;1.02;;
64789;SDS011;51223;51.816;5.862;2023-08-08T00:03:57;4.55;;;0.77;;
64789;SDS011;51223;51.816;5.862;2023-08-08T00:06:23;0.60;;;0.57;;
64789;SDS011;51223;51.816;5.862;2023-08-08T00:08:49;2.15;;;1.08;;
64789;SDS011;51223;51.816;5.862;2023-08-08T00:11:14;2.40;;;0.93;;
64789;SDS011;51223;51.816;5.862;2023-08-08T00:13:40;0.95;;;0.85;;
64789;SDS011;51223;51.816;5.862;2023-08-08T00:16:05;0.93;;;0.80;;
64789;SDS011;51223;51.816;5.862;2023-08-08T00:18:31;3.67;;;1.45;;
64789;SDS011;51223;51.816;5.862;2023-08-08T00:20:56;1.23;;;1.15;;
64789;SDS011;51223;51.816;5.862;2023-08-08T00:23:22;1.20;;;1.00;;
64789;SDS011;51223;51.816;5.862;2023-08-08T00:25:47;1.85;;;1.52;;
64789;SDS011;51223;51.816;5.862;2023-08-08T00:28:17;0.73;;;0.73;;
64789;SDS011;51223;51.816;5.862;2023-08-08T00:30:42;2.00;;;0.80;;
64789;SDS011;51223;51.816;5.862;2023-08-08T00:33:08;2.20;;;1.00;;
64789;SDS011;51223;51.816;5.862;2023-08-08T00:35:33;1.30;;;1.10;;
64789;SDS011;51223;51.816;5.862;2023-08-08T00:37:59;1.40;;;1.08;;
64789;SDS011;51223;51.816;5.862;2023-08-08T00:40:25;2.35;;;0.90;;
64789;SDS011;51223;51.816;5.862;2023-08-08T00:42:50;3.28;;;0.95;;
64789;SDS011;51223;51.816;5.862;2023-08-08T00:45:16;2.42;;;1.48;;
64789;SDS011;51223;51.816;5.862;2023-08-08T00:47:41;0.73;;;0.68;;
64789;SDS011;51223;51.816;5.862;2023-08-08T00:50:07;2.28;;;1.55;;
64789;SDS011;51223;51.816;5.862;2023-08-08T00:52:33;1.05;;;0.93;;
64789;SDS011;51223;51.816;5.862;2023-08-08T00:54:59;1.25;;;0.90;;
64789;SDS011;51223;51.816;5.862;2023-08-08T00:57:25;3.33;;;1.45;;
64789;SDS011;51223;51.816;5.862;2023-08-08T00:59:50;1.10;;;1.00;;
64789;SDS011;51223;51.816;5.862;2023-08-08T01:02:16;3.05;;;0.52;;
64789;SDS011;51223;51.816;5.862;2023-08-08T01:04:42;0.90;;;0.90;;
64789;SDS011;51223;51.816;5.862;2023-08-08T01:07:12;1.05;;;0.95;;
64789;SDS011;51223;51.816;5.862;2023-08-08T01:09:52;0.63;;;0.63;;
64789;SDS011;51223;51.816;5.862;2023-08-08T01:12:18;0.28;;;0.28;;
64789;SDS011;51223;51.816;5.862;2023-08-08T01:14:45;3.17;;;1.23;;
64789;SDS011;51223;51.816;5.862;2023-08-08T01:17:11;1.25;;;1.00;;
64789;SDS011;51223;51.816;5.862;2023-08-08T01:19:37;2.42;;;1.38;;
64789;SDS011;51223;51.816;5.862;2023-08-08T01:22:05;1.48;;;0.75;;
64789;SDS011;51223;51.816;5.862;2023-08-08T01:24:32;1.70;;;0.95;;
64789;SDS011;51223;51.816;5.862;2023-08-08T01:27:00;1.20;;;0.73;;
64789;SDS011;51223;51.816;5.862;2023-08-08T01:29:26;2.00;;;0.80;;
64789;SDS011;51223;51.816;5.862;2023-08-08T01:31:52;0.88;;;0.88;;
64789;SDS011;51223;51.816;5.862;2023-08-08T01:34:18;2.45;;;1.17;;
64789;SDS011;51223;51.816;5.862;2023-08-08T01:39:10;0.63;;;0.63;;
64789;SDS011;51223;51.816;5.862;2023-08-08T01:41:38;1.30;;;1.20;;
64789;SDS011;51223;51.816;5.862;2023-08-08T01:44:05;2.15;;;1.05;;
64789;SDS011;51223;51.816;5.862;2023-08-08T01:46:31;2.00;;;0.85;;
64789;SDS011;51223;51.816;5.862;2023-08-08T01:48:58;0.50;;;0.50;;
64789;SDS011;51223;51.816;5.862;2023-08-08T01:51:24;2.35;;;1.10;;
64789;SDS011;51223;51.816;5.862;2023-08-08T01:53:51;3.10;;;1.38;;
64789;SDS011;51223;51.816;5.862;2023-08-08T01:56:16;2.97;;;0.50;;
64789;SDS011;51223;51.816;5.862;2023-08-08T01:58:42;0.65;;;0.35;;
64789;SDS011;51223;51.816;5.862;2023-08-08T02:01:07;2.50;;;1.25;;
64789;SDS011;51223;51.816;5.862;2023-08-08T02:03:33;1.40;;;0.82;;
64789;SDS011;51223;51.816;5.862;2023-08-08T02:05:59;0.38;;;0.38;;
64789;SDS011;51223;51.816;5.862;2023-08-08T02:08:24;4.88;;;1.48;;
64789;SDS011;51223;51.816;5.862;2023-08-08T02:10:50;6.80;;;1.63;;
64789;SDS011;51223;51.816;5.862;2023-08-08T02:13:15;4.43;;;0.77;;
64789;SDS011;51223;51.816;5.862;2023-08-08T02:15:41;1.10;;;0.73;;
64789;SDS011;51223;51.816;5.862;2023-08-08T02:18:06;1.35;;;0.95;;
64789;SDS011;51223;51.816;5.862;2023-08-08T02:20:34;1.15;;;0.85;;
64789;SDS011;51223;51.816;5.862;2023-08-08T02:22:59;0.32;;;0.32;;
64789;SDS011;51223;51.816;5.862;2023-08-08T02:25:25;1.55;;;0.43;;
64789;SDS011;51223;51.816;5.862;2023-08-08T02:27:51;3.10;;;0.77;;
64789;SDS011;51223;51.816;5.862;2023-08-08T02:30:16;1.45;;;0.73;;
64789;SDS011;51223;51.816;5.862;2023-08-08T02:32:42;0.98;;;0.77;;
64789;SDS011;51223;51.816;5.862;2023-08-08T02:35:07;2.05;;;1.15;;
64789;SDS011;51223;51.816;5.862;2023-08-08T02:37:33;1.27;;;0.68;;
64789;SDS011;51223;51.816;5.862;2023-08-08T02:39:59;3.58;;;1.63;;
64789;SDS011;51223;51.816;5.862;2023-08-08T02:42:24;0.77;;;0.73;;
64789;SDS011;51223;51.816;5.862;2023-08-08T02:44:50;0.05;;;0.05;;
64789;SDS011;51223;51.816;5.862;2023-08-08T02:47:16;1.20;;;0.85;;
64789;SDS011;51223;51.816;5.862;2023-08-08T02:49:42;2.13;;;0.63;;
64789;SDS011;51223;51.816;5.862;2023-08-08T02:52:07;0.75;;;0.75;;
64789;SDS011;51223;51.816;5.862;2023-08-08T02:54:33;3.92;;;1.15;;
64789;SDS011;51223;51.816;5.862;2023-08-08T02:56:58;0.50;;;0.50;;
64789;SDS011;51223;51.816;5.862;2023-08-08T02:59:24;1.00;;;0.70;;
64789;SDS011;51223;51.816;5.862;2023-08-08T03:01:49;3.28;;;1.13;;
64789;SDS011;51223;51.816;5.862;2023-08-08T03:04:15;1.33;;;1.00;;
64789;SDS011;51223;51.816;5.862;2023-08-08T03:06:41;3.20;;;1.05;;
64789;SDS011;51223;51.816;5.862;2023-08-08T03:09:06;1.13;;;0.68;;
64789;SDS011;51223;51.816;5.862;2023-08-08T03:11:32;0.68;;;0.68;;
64789;SDS011;51223;51.816;5.862;2023-08-08T03:13:58;4.65;;;1.50;;
64789;SDS011;51223;51.816;5.862;2023-08-08T03:16:23;3.25;;;1.45;;
64789;SDS011;51223;51.816;5.862;2023-08-08T03:18:49;0.75;;;0.75;;
64789;SDS011;51223;51.816;5.862;2023-08-08T03:21:15;2.45;;;1.63;;
64789;SDS011;51223;51.816;5.862;2023-08-08T03:23:40;1.35;;;1.10;;
64789;SDS011;51223;51.816;5.862;2023-08-08T03:26:06;1.65;;;1.10;;
64789;SDS011;51223;51.816;5.862;2023-08-08T03:28:31;2.10;;;1.45;;
64789;SDS011;51223;51.816;5.862;2023-08-08T03:30:57;1.20;;;1.10;;
64789;SDS011;51223;51.816;5.862;2023-08-08T03:33:22;1.20;;;1.08;;
64789;SDS011;51223;51.816;5.862;2023-08-08T03:35:48;2.60;;;0.93;;
64789;SDS011;51223;51.816;5.862;2023-08-08T03:38:14;2.25;;;1.23;;
64789;SDS011;51223;51.816;5.862;2023-08-08T03:40:39;1.52;;;1.20;;
64789;SDS011;51223;51.816;5.862;2023-08-08T03:43:05;1.40;;;1.27;;
64789;SDS011;51223;51.816;5.862;2023-08-08T03:45:31;1.65;;;1.30;;
64789;SDS011;51223;51.816;5.862;2023-08-08T03:47:56;0.95;;;0.90;;
64789;SDS011;51223;51.816;5.862;2023-08-08T03:50:22;1.23;;;0.55;;
64789;SDS011;51223;51.816;5.862;2023-08-08T03:52:47;0.70;;;0.70;;
64789;SDS011;51223;51.816;5.862;2023-08-08T03:55:13;4.05;;;1.30;;
64789;SDS011;51223;51.816;5.862;2023-08-08T03:57:39;1.40;;;1.20;;
64789;SDS011;51223;51.816;5.862;2023-08-08T04:00:04;1.67;;;1.13;;
64789;SDS011;51223;51.816;5.862;2023-08-08T04:02:32;1.48;;;1.05;;
64789;SDS011;51223;51.816;5.862;2023-08-08T04:04:58;1.75;;;1.35;;
64789;SDS011;51223;51.816;5.862;2023-08-08T04:07:23;3.50;;;0.98;;
64789;SDS011;51223;51.816;5.862;2023-08-08T04:09:49;1.70;;;1.27;;
64789;SDS011;51223;51.816;5.862;2023-08-08T04:12:15;0.68;;;0.60;;
64789;SDS011;51223;51.816;5.862;2023-08-08T04:14:40;1.40;;;1.00;;
64789;SDS011;51223;51.816;5.862;2023-08-08T04:17:06;2.35;;;1.35;;
64789;SDS011;51223;51.816;5.862;2023-08-08T04:19:31;4.15;;;1.67;;
64789;SDS011;51223;51.816;5.862;2023-08-08T04:21:57;2.45;;;1.42;;
64789;SDS011;51223;51.816;5.862;2023-08-08T04:24:23;0.95;;;0.55;;
64789;SDS011;51223;51.816;5.862;2023-08-08T04:26:48;0.35;;;0.30;;
64789;SDS011;51223;51.816;5.862;2023-08-08T04:29:14;3.42;;;1.63;;
64789;SDS011;51223;51.816;5.862;2023-08-08T04:31:39;3.17;;;1.40;;
64789;SDS011;51223;51.816;5.862;2023-08-08T04:34:05;0.88;;;0.82;;
64789;SDS011;51223;51.816;5.862;2023-08-08T04:36:31;1.17;;;0.90;;
64789;SDS011;51223;51.816;5.862;2023-08-08T04:38:56;1.45;;;1.00;;
64789;SDS011;51223;51.816;5.862;2023-08-08T04:41:22;1.27;;;1.05;;
64789;SDS011;51223;51.816;5.862;2023-08-08T04:43:47;2.08;;;1.35;;
64789;SDS011;51223;51.816;5.862;2023-08-08T04:46:13;1.52;;;1.25;;
64789;SDS011;51223;51.816;5.862;2023-08-08T04:48:39;0.95;;;0.90;;
64789;SDS011;51223;51.816;5.862;2023-08-08T04:51:04;1.90;;;1.40;;
64789;SDS011;51223;51.816;5.862;2023-08-08T04:53:30;3.33;;;1.45;;
64789;SDS011;51223;51.816;5.862;2023-08-08T04:55:56;2.85;;;1.30;;
64789;SDS011;51223;51.816;5.862;2023-08-08T04:58:21;4.18;;;1.98;;
64789;SDS011;51223;51.816;5.862;2023-08-08T05:00:47;3.03;;;1.70;;
64789;SDS011;51223;51.816;5.862;2023-08-08T05:03:12;1.10;;;0.77;;
64789;SDS011;51223;51.816;5.862;2023-08-08T05:05:38;5.72;;;2.30;;
64789;SDS011;51223;51.816;5.862;2023-08-08T05:08:04;3.75;;;1.70;;
64789;SDS011;51223;51.816;5.862;2023-08-08T05:10:29;1.33;;;1.10;;
64789;SDS011;51223;51.816;5.862;2023-08-08T05:12:56;3.15;;;1.30;;
64789;SDS011;51223;51.816;5.862;2023-08-08T05:15:22;2.25;;;1.40;;
64789;SDS011;51223;51.816;5.862;2023-08-08T05:17:48;3.85;;;1.45;;
64789;SDS011;51223;51.816;5.862;2023-08-08T05:20:13;2.88;;;1.55;;
64789;SDS011;51223;51.816;5.862;2023-08-08T05:22:39;3.03;;;0.88;;
64789;SDS011;51223;51.816;5.862;2023-08-08T05:25:04;2.42;;;1.52;;
64789;SDS011;51223;51.816;5.862;2023-08-08T05:27:30;2.25;;;1.73;;
64789;SDS011;51223;51.816;5.862;2023-08-08T05:29:56;0.95;;;0.93;;
64789;SDS011;51223;51.816;5.862;2023-08-08T05:32:21;2.65;;;1.67;;
64789;SDS011;51223;51.816;5.862;2023-08-08T05:34:47;2.80;;;1.70;;
64789;SDS011;51223;51.816;5.862;2023-08-08T05:37:14;11.48;;;1.48;;
64789;SDS011;51223;51.816;5.862;2023-08-08T05:39:40;4.63;;;1.70;;
64789;SDS011;51223;51.816;5.862;2023-08-08T05:42:05;1.10;;;1.00;;
64789;SDS011;51223;51.816;5.862;2023-08-08T05:44:31;4.55;;;1.77;;
64789;SDS011;51223;51.816;5.862;2023-08-08T05:46:56;0.60;;;0.50;;
64789;SDS011;51223;51.816;5.862;2023-08-08T05:49:22;1.90;;;1.40;;
64789;SDS011;51223;51.816;5.862;2023-08-08T05:51:48;2.40;;;1.30;;
64789;SDS011;51223;51.816;5.862;2023-08-08T05:54:13;2.08;;;1.48;;
64789;SDS011;51223;51.816;5.862;2023-08-08T05:56:39;4.97;;;1.58;;
64789;SDS011;51223;51.816;5.862;2023-08-08T05:59:04;2.25;;;1.23;;
64789;SDS011;51223;51.816;5.862;2023-08-08T06:01:30;0.90;;;0.75;;
64789;SDS011;51223;51.816;5.862;2023-08-08T06:03:56;4.05;;;1.35;;
64789;SDS011;51223;51.816;5.862;2023-08-08T06:06:25;0.65;;;0.65;;
64789;SDS011;51223;51.816;5.862;2023-08-08T06:08:50;1.95;;;1.17;;
64789;SDS011;51223;51.816;5.862;2023-08-08T06:11:16;3.40;;;1.77;;
64789;SDS011;51223;51.816;5.862;2023-08-08T06:13:41;4.35;;;1.42;;
64789;SDS011;51223;51.816;5.862;2023-08-08T06:16:07;4.40;;;1.73;;
64789;SDS011;51223;51.816;5.862;2023-08-08T06:18:33;1.65;;;0.82;;
64789;SDS011;51223;51.816;5.862;2023-08-08T06:20:58;10.40;;;1.23;;
64789;SDS011;51223;51.816;5.862;2023-08-08T06:23:24;1.65;;;1.33;;
64789;SDS011;51223;51.816;5.862;2023-08-08T06:25:50;4.70;;;1.95;;
64789;SDS011;51223;51.816;5.862;2023-08-08T06:28:15;5.63;;;1.38;;
64789;SDS011;51223;51.816;5.862;2023-08-08T06:30:41;1.38;;;1.00;;
64789;SDS011;51223;51.816;5.862;2023-08-08T06:33:06;1.30;;;1.20;;
64789;SDS011;51223;51.816;5.862;2023-08-08T06:35:32;3.55;;;1.15;;
64789;SDS011;51223;51.816;5.862;2023-08-08T06:37:58;5.50;;;1.70;;
64789;SDS011;51223;51.816;5.862;2023-08-08T06:40:23;2.60;;;1.33;;
64789;SDS011;51223;51.816;5.862;2023-08-08T06:42:49;6.53;;;1.77;;
64789;SDS011;51223;51.816;5.862;2023-08-08T06:45:15;5.28;;;1.15;;
64789;SDS011;51223;51.816;5.862;2023-08-08T06:47:40;10.18;;;1.90;;
64789;SDS011;51223;51.816;5.862;2023-08-08T06:50:06;2.22;;;1.65;;
64789;SDS011;51223;51.816;5.862;2023-08-08T06:52:32;1.08;;;0.95;;
64789;SDS011;51223;51.816;5.862;2023-08-08T06:54:57;3.28;;;1.75;;
64789;SDS011;51223;51.816;5.862;2023-08-08T06:57:23;5.93;;;1.75;;
64789;SDS011;51223;51.816;5.862;2023-08-08T06:59:49;2.60;;;1.08;;
64789;SDS011;51223;51.816;5.862;2023-08-08T07:02:16;3.40;;;2.00;;
64789;SDS011;51223;51.816;5.862;2023-08-08T07:04:42;1.23;;;0.90;;
64789;SDS011;51223;51.816;5.862;2023-08-08T07:07:08;2.92;;;1.00;;
64789;SDS011;51223;51.816;5.862;2023-08-08T07:09:34;0.45;;;0.45;;
64789;SDS011;51223;51.816;5.862;2023-08-08T07:12:00;2.30;;;1.15;;
64789;SDS011;51223;51.816;5.862;2023-08-08T07:14:25;6.13;;;1.30;;
64789;SDS011;51223;51.816;5.862;2023-08-08T07:16:51;1.55;;;0.95;;
64789;SDS011;51223;51.816;5.862;2023-08-08T07:19:18;0.20;;;0.20;;
64789;SDS011;51223;51.816;5.862;2023-08-08T07:21:44;2.50;;;1.00;;
64789;SDS011;51223;51.816;5.862;2023-08-08T07:24:10;4.18;;;0.63;;
64789;SDS011;51223;51.816;5.862;2023-08-08T07:26:35;1.35;;;0.73;;
64789;SDS011;51223;51.816;5.862;2023-08-08T07:29:01;1.63;;;1.05;;
64789;SDS011;51223;51.816;5.862;2023-08-08T07:31:26;5.47;;;1.65;;
64789;SDS011;51223;51.816;5.862;2023-08-08T07:33:52;3.38;;;0.93;;
64789;SDS011;51223;51.816;5.862;2023-08-08T07:36:18;0.93;;;0.80;;
64789;SDS011;51223;51.816;5.862;2023-08-08T07:38:43;0.32;;;0.28;;
64789;SDS011;51223;51.816;5.862;2023-08-08T07:41:09;2.03;;;1.05;;
64789;SDS011;51223;51.816;5.862;2023-08-08T07:43:35;3.15;;;1.55;;
64789;SDS011;51223;51.816;5.862;2023-08-08T07:46:01;1.65;;;0.73;;
64789;SDS011;51223;51.816;5.862;2023-08-08T07:48:26;0.88;;;0.68;;
64789;SDS011;51223;51.816;5.862;2023-08-08T07:50:52;0.40;;;0.40;;
64789;SDS011;51223;51.816;5.862;2023-08-08T07:53:17;2.75;;;0.95;;
64789;SDS011;51223;51.816;5.862;2023-08-08T07:55:43;4.45;;;1.35;;
64789;SDS011;51223;51.816;5.862;2023-08-08T07:58:08;0.60;;;0.40;;
64789;SDS011;51223;51.816;5.862;2023-08-08T08:00:34;2.00;;;0.82;;
64789;SDS011;51223;51.816;5.862;2023-08-08T08:03:00;0.32;;;0.32;;
64789;SDS011;51223;51.816;5.862;2023-08-08T08:05:25;0.57;;;0.30;;
64789;SDS011;51223;51.816;5.862;2023-08-08T08:07:51;0.15;;;0.15;;
64789;SDS011;51223;51.816;5.862;2023-08-08T08:10:16;0.68;;;0.30;;
64789;SDS011;51223;51.816;5.862;2023-08-08T08:12:42;4.47;;;0.65;;
64789;SDS011;51223;51.816;5.862;2023-08-08T08:15:08;3.97;;;0.60;;
64789;SDS011;51223;51.816;5.862;2023-08-08T08:17:34;1.48;;;0.30;;
64789;SDS011;51223;51.816;5.862;2023-08-08T08:20:00;0.52;;;0.43;;
64789;SDS011;51223;51.816;5.862;2023-08-08T08:22:25;0.75;;;0.75;;
64789;SDS011;51223;51.816;5.862;2023-08-08T08:24:51;2.03;;;0.63;;
64789;SDS011;51223;51.816;5.862;2023-08-08T08:27:17;0.30;;;0.30;;
64789;SDS011;51223;51.816;5.862;2023-08-08T08:29:42;0.00;;;0.00;;
64789;SDS011;51223;51.816;5.862;2023-08-08T08:32:08;0.63;;;0.63;;
64789;SDS011;51223;51.816;5.862;2023-08-08T08:34:34;0.20;;;0.20;;
64789;SDS011;51223;51.816;5.862;2023-08-08T08:36:59;0.90;;;0.22;;
64789;SDS011;51223;51.816;5.862;2023-08-08T08:39:25;0.30;;;0.20;;
64789;SDS011;51223;51.816;5.862;2023-08-08T08:41:53;0.22;;;0.22;;
64789;SDS011;51223;51.816;5.862;2023-08-08T08:44:19;0.10;;;0.10;;
64789;SDS011;51223;51.816;5.862;2023-08-08T08:46:46;0.85;;;0.50;;
64789;SDS011;51223;51.816;5.862;2023-08-08T08:49:13;1.45;;;0.65;;
64789;SDS011;51223;51.816;5.862;2023-08-08T08:51:39;0.55;;;0.55;;
64789;SDS011;51223;51.816;5.862;2023-08-08T08:54:04;0.20;;;0.20;;
64789;SDS011;51223;51.816;5.862;2023-08-08T08:56:30;0.10;;;0.10;;
64789;SDS011;51223;51.816;5.862;2023-08-08T08:58:58;0.32;;;0.30;;
64789;SDS011;51223;51.816;5.862;2023-08-08T09:01:24;0.55;;;0.55;;
64789;SDS011;51223;51.816;5.862;2023-08-08T09:03:50;17.08;;;0.93;;
64789;SDS011;51223;51.816;5.862;2023-08-08T09:06:15;0.10;;;0.10;;
64789;SDS011;51223;51.816;5.862;2023-08-08T09:08:41;8.25;;;0.75;;
64789;SDS011;51223;51.816;5.862;2023-08-08T09:11:07;0.47;;;0.40;;
64789;SDS011;51223;51.816;5.862;2023-08-08T09:13:35;0.38;;;0.32;;
64789;SDS011;51223;51.816;5.862;2023-08-08T09:16:01;0.52;;;0.40;;
64789;SDS011;51223;51.816;5.862;2023-08-08T09:18:27;0.22;;;0.20;;
64789;SDS011;51223;51.816;5.862;2023-08-08T09:20:52;0.52;;;0.40;;
64789;SDS011;51223;51.816;5.862;2023-08-08T09:23:18;0.30;;;0.30;;
64789;SDS011;51223;51.816;5.862;2023-08-08T09:25:44;0.52;;;0.45;;
64789;SDS011;51223;51.816;5.862;2023-08-08T09:28:09;0.50;;;0.50;;
64789;SDS011;51223;51.816;5.862;2023-08-08T09:30:35;0.20;;;0.13;;
64789;SDS011;51223;51.816;5.862;2023-08-08T09:33:01;1.52;;;0.32;;
64789;SDS011;51223;51.816;5.862;2023-08-08T09:35:28;0.00;;;0.00;;
64789;SDS011;51223;51.816;5.862;2023-08-08T09:37:54;0.57;;;0.40;;
64789;SDS011;51223;51.816;5.862;2023-08-08T09:40:19;0.10;;;0.10;;
64789;SDS011;51223;51.816;5.862;2023-08-08T09:42:46;2.30;;;0.80;;
64789;SDS011;51223;51.816;5.862;2023-08-08T09:45:12;0.65;;;0.47;;
64789;SDS011;51223;51.816;5.862;2023-08-08T09:47:38;0.22;;;0.22;;
64789;SDS011;51223;51.816;5.862;2023-08-08T09:50:04;0.17;;;0.17;;
64789;SDS011;51223;51.816;5.862;2023-08-08T09:52:35;0.50;;;0.32;;
64789;SDS011;51223;51.816;5.862;2023-08-08T09:55:01;0.20;;;0.20;;
64789;SDS011;51223;51.816;5.862;2023-08-08T09:57:28;0.15;;;0.15;;
64789;SDS011;51223;51.816;5.862;2023-08-08T09:59:54;0.63;;;0.28;;
64789;SDS011;51223;51.816;5.862;2023-08-08T10:02:20;0.20;;;0.20;;
64789;SDS011;51223;51.816;5.862;2023-08-08T10:04:46;0.10;;;0.10;;
64789;SDS011;51223;51.816;5.862;2023-08-08T10:07:12;0.52;;;0.43;;
64789;SDS011;51223;51.816;5.862;2023-08-08T10:09:38;0.00;;;0.00;;
64789;SDS011;51223;51.816;5.862;2023-08-08T10:12:07;0.47;;;0.40;;
64789;SDS011;51223;51.816;5.862;2023-08-08T10:14:34;0.95;;;0.40;;
64789;SDS011;51223;51.816;5.862;2023-08-08T10:17:02;0.00;;;0.00;;
64789;SDS011;51223;51.816;5.862;2023-08-08T10:19:27;0.17;;;0.17;;
64789;SDS011;51223;51.816;5.862;2023-08-08T10:21:59;1.50;;;0.38;;
64789;SDS011;51223;51.816;5.862;2023-08-08T10:24:35;1.35;;;0.68;;
64789;SDS011;51223;51.816;5.862;2023-08-08T10:27:01;0.52;;;0.30;;
64789;SDS011;51223;51.816;5.862;2023-08-08T10:29:28;0.30;;;0.30;;
64789;SDS011;51223;51.816;5.862;2023-08-08T10:31:57;0.60;;;0.50;;
64789;SDS011;51223;51.816;5.862;2023-08-08T10:34:27;0.55;;;0.25;;
64789;SDS011;51223;51.816;5.862;2023-08-08T10:36:53;2.70;;;1.25;;
64789;SDS011;51223;51.816;5.862;2023-08-08T10:39:19;0.20;;;0.20;;
64789;SDS011;51223;51.816;5.862;2023-08-08T10:41:48;2.28;;;0.68;;
64789;SDS011;51223;51.816;5.862;2023-08-08T10:44:21;0.20;;;0.10;;
64789;SDS011;51223;51.816;5.862;2023-08-08T10:46:46;0.05;;;0.05;;
64789;SDS011;51223;51.816;5.862;2023-08-08T10:49:12;4.28;;;0.30;;
64789;SDS011;51223;51.816;5.862;2023-08-08T10:51:41;0.57;;;0.28;;
64789;SDS011;51223;51.816;5.862;2023-08-08T10:54:15;0.17;;;0.10;;
64789;SDS011;51223;51.816;5.862;2023-08-08T10:56:41;0.20;;;0.20;;
64789;SDS011;51223;51.816;5.862;2023-08-08T10:59:16;1.08;;;0.30;;
64789;SDS011;51223;51.816;5.862;2023-08-08T11:01:44;0.40;;;0.20;;
64789;SDS011;51223;51.816;5.862;2023-08-08T11:04:10;1.02;;;0.40;;
64789;SDS011;51223;51.816;5.862;2023-08-08T11:06:36;0.20;;;0.20;;
64789;SDS011;51223;51.816;5.862;2023-08-08T11:09:05;0.20;;;0.20;;
64789;SDS011;51223;51.816;5.862;2023-08-08T11:11:35;0.20;;;0.20;;
64789;SDS011;51223;51.816;5.862;2023-08-08T11:14:08;0.30;;;0.20;;
64789;SDS011;51223;51.816;5.862;2023-08-08T11:16:33;0.22;;;0.20;;
64789;SDS011;51223;51.816;5.862;2023-08-08T11:18:59;0.70;;;0.47;;
64789;SDS011;51223;51.816;5.862;2023-08-08T11:21:25;0.43;;;0.43;;
64789;SDS011;51223;51.816;5.862;2023-08-08T11:23:50;0.30;;;0.30;;
64789;SDS011;51223;51.816;5.862;2023-08-08T11:26:19;0.35;;;0.25;;
64789;SDS011;51223;51.816;5.862;2023-08-08T11:28:51;0.80;;;0.47;;
64789;SDS011;51223;51.816;5.862;2023-08-08T11:31:17;0.20;;;0.20;;
64789;SDS011;51223;51.816;5.862;2023-08-08T11:33:43;0.10;;;0.10;;
64789;SDS011;51223;51.816;5.862;2023-08-08T11:36:09;1.73;;;0.70;;
64789;SDS011;51223;51.816;5.862;2023-08-08T11:38:34;0.10;;;0.10;;
64789;SDS011;51223;51.816;5.862;2023-08-08T11:41:00;0.82;;;0.38;;
64789;SDS011;51223;51.816;5.862;2023-08-08T11:43:26;0.40;;;0.40;;
64789;SDS011;51223;51.816;5.862;2023-08-08T11:45:52;1.27;;;0.45;;
64789;SDS011;51223;51.816;5.862;2023-08-08T11:48:20;0.63;;;0.50;;
64789;SDS011;51223;51.816;5.862;2023-08-08T11:50:46;0.32;;;0.30;;
64789;SDS011;51223;51.816;5.862;2023-08-08T11:53:12;1.38;;;0.32;;
64789;SDS011;51223;51.816;5.862;2023-08-08T11:55:37;0.77;;;0.30;;
64789;SDS011;51223;51.816;5.862;2023-08-08T11:58:03;0.65;;;0.40;;
64789;SDS011;51223;51.816;5.862;2023-08-08T12:00:30;0.93;;;0.22;;
64789;SDS011;51223;51.816;5.862;2023-08-08T12:02:56;0.35;;;0.17;;
64789;SDS011;51223;51.816;5.862;2023-08-08T12:05:22;0.52;;;0.40;;
64789;SDS011;51223;51.816;5.862;2023-08-08T12:07:48;0.30;;;0.30;;
64789;SDS011;51223;51.816;5.862;2023-08-08T12:10:15;0.40;;;0.40;;
64789;SDS011;51223;51.816;5.862;2023-08-08T12:12:41;0.28;;;0.28;;
64789;SDS011;51223;51.816;5.862;2023-08-08T12:15:07;0.93;;;0.35;;
64789;SDS011;51223;51.816;5.862;2023-08-08T12:17:34;0.55;;;0.47;;
64789;SDS011;51223;51.816;5.862;2023-08-08T12:20:00;2.90;;;0.28;;
64789;SDS011;51223;51.816;5.862;2023-08-08T12:22:26;0.22;;;0.13;;
64789;SDS011;51223;51.816;5.862;2023-08-08T12:24:51;0.32;;;0.22;;
64789;SDS011;51223;51.816;5.862;2023-08-08T12:27:17;0.43;;;0.20;;
64789;SDS011;51223;51.816;5.862;2023-08-08T12:29:43;1.10;;;0.75;;
64789;SDS011;51223;51.816;5.862;2023-08-08T12:32:09;0.98;;;0.40;;
64789;SDS011;51223;51.816;5.862;2023-08-08T12:34:35;0.00;;;0.00;;
64789;SDS011;51223;51.816;5.862;2023-08-08T12:37:01;0.30;;;0.15;;
64789;SDS011;51223;51.816;5.862;2023-08-08T12:39:27;0.28;;;0.17;;
64789;SDS011;51223;51.816;5.862;2023-08-08T12:41:52;0.57;;;0.30;;
64789;SDS011;51223;51.816;5.862;2023-08-08T12:44:18;0.40;;;0.40;;
64789;SDS011;51223;51.816;5.862;2023-08-08T12:46:43;1.17;;;0.57;;
64789;SDS011;51223;51.816;5.862;2023-08-08T12:49:09;0.20;;;0.20;;
64789;SDS011;51223;51.816;5.862;2023-08-08T12:51:34;0.10;;;0.10;;
64789;SDS011;51223;51.816;5.862;2023-08-08T12:54:00;0.28;;;0.22;;
64789;SDS011;51223;51.816;5.862;2023-08-08T12:56:26;0.32;;;0.30;;
64789;SDS011;51223;51.816;5.862;2023-08-08T12:58:51;0.43;;;0.30;;
64789;SDS011;51223;51.816;5.862;2023-08-08T13:01:17;0.63;;;0.30;;
64789;SDS011;51223;51.816;5.862;2023-08-08T13:03:42;0.65;;;0.20;;
64789;SDS011;51223;51.816;5.862;2023-08-08T13:06:08;0.52;;;0.30;;
64789;SDS011;51223;51.816;5.862;2023-08-08T13:08:36;0.00;;;0.00;;
64789;SDS011;51223;51.816;5.862;2023-08-08T13:11:02;0.57;;;0.40;;
64789;SDS011;51223;51.816;5.862;2023-08-08T13:13:27;1.35;;;0.45;;
64789;SDS011;51223;51.816;5.862;2023-08-08T13:15:53;1.17;;;1.02;;
64789;SDS011;51223;51.816;5.862;2023-08-08T13:18:19;0.32;;;0.32;;
64789;SDS011;51223;51.816;5.862;2023-08-08T13:20:44;0.35;;;0.28;;
64789;SDS011;51223;51.816;5.862;2023-08-08T13:23:10;0.15;;;0.15;;
64789;SDS011;51223;51.816;5.862;2023-08-08T13:25:35;0.57;;;0.30;;
64789;SDS011;51223;51.816;5.862;2023-08-08T13:28:01;0.15;;;0.15;;
64789;SDS011;51223;51.816;5.862;2023-08-08T13:30:28;0.38;;;0.35;;
64789;SDS011;51223;51.816;5.862;2023-08-08T13:32:54;0.17;;;0.17;;
64789;SDS011;51223;51.816;5.862;2023-08-08T13:35:19;0.95;;;0.60;;
64789;SDS011;51223;51.816;5.862;2023-08-08T13:37:45;0.52;;;0.30;;
64789;SDS011;51223;51.816;5.862;2023-08-08T13:40:15;1.38;;;0.40;;
64789;SDS011;51223;51.816;5.862;2023-08-08T13:42:40;0.00;;;0.00;;
64789;SDS011;51223;51.816;5.862;2023-08-08T13:45:06;2.75;;;0.45;;
64789;SDS011;51223;51.816;5.862;2023-08-08T13:47:32;0.10;;;0.10;;
64789;SDS011;51223;51.816;5.862;2023-08-08T13:49:57;0.10;;;0.10;;
64789;SDS011;51223;51.816;5.862;2023-08-08T13:52:23;0.35;;;0.32;;
64789;SDS011;51223;51.816;5.862;2023-08-08T13:54:49;0.50;;;0.25;;
64789;SDS011;51223;51.816;5.862;2023-08-08T13:57:15;0.08;;;0.08;;
64789;SDS011;51223;51.816;5.862;2023-08-08T13:59:40;0.40;;;0.32;;
64789;SDS011;51223;51.816;5.862;2023-08-08T14:02:06;0.03;;;0.03;;
64789;SDS011;51223;51.816;5.862;2023-08-08T14:04:31;1.25;;;0.70;;
64789;SDS011;51223;51.816;5.862;2023-08-08T14:06:57;0.22;;;0.22;;
64789;SDS011;51223;51.816;5.862;2023-08-08T14:09:23;0.43;;;0.20;;
64789;SDS011;51223;51.816;5.862;2023-08-08T14:11:48;0.10;;;0.10;;
64789;SDS011;51223;51.816;5.862;2023-08-08T14:14:14;0.17;;;0.17;;
64789;SDS011;51223;51.816;5.862;2023-08-08T14:16:39;0.25;;;0.25;;
64789;SDS011;51223;51.816;5.862;2023-08-08T14:19:05;0.30;;;0.30;;
64789;SDS011;51223;51.816;5.862;2023-08-08T14:21:30;1.25;;;0.30;;
64789;SDS011;51223;51.816;5.862;2023-08-08T14:23:56;0.47;;;0.22;;
64789;SDS011;51223;51.816;5.862;2023-08-08T14:26:21;0.17;;;0.17;;
64789;SDS011;51223;51.816;5.862;2023-08-08T14:28:47;1.55;;;0.57;;
64789;SDS011;51223;51.816;5.862;2023-08-08T14:31:13;1.92;;;0.50;;
64789;SDS011;51223;51.816;5.862;2023-08-08T14:33:38;0.40;;;0.40;;
64789;SDS011;51223;51.816;5.862;2023-08-08T14:36:04;0.32;;;0.32;;
64789;SDS011;51223;51.816;5.862;2023-08-08T14:38:33;0.25;;;0.25;;
64789;SDS011;51223;51.816;5.862;2023-08-08T14:40:59;1.90;;;1.13;;
64789;SDS011;51223;51.816;5.862;2023-08-08T14:43:25;0.20;;;0.20;;